sensor_id;sensor_type;location;lat;lon;timestamp;P1;durP1;ratioP1;P2;durP2;ratioP2
55312;SDS011;46892;45.668;11.756;2023-09-30T00:02:15;13.27;;;10.23;;
55312;SDS011;46892;45.668;11.756;2023-09-30T00:04:41;16.07;;;10.77;;
55312;SDS011;46892;45.668;11.756;2023-09-30T00:07:07;12.47;;;9.47;;
55312;SDS011;46892;45.668;11.756;2023-09-30T00:09:33;14.43;;;10.67;;
55312;SDS011;46892;45.668;11.756;2023-09-30T00:11:58;11.90;;;10.43;;
55312;SDS011;46892;45.668;11.756;2023-09-30T00:14:25;12.50;;;10.30;;
55312;SDS011;46892;45.668;11.756;2023-09-30T00:16:51;14.13;;;10.20;;
55312;SDS011;46892;45.668;11.756;2023-09-30T00:19:16;13.43;;;10.23;;
55312;SDS011;46892;45.668;11.756;2023-09-30T00:21:42;12.97;;;10.00;;
55312;SDS011;46892;45.668;11.756;2023-09-30T00:24:08;15.60;;;10.47;;
55312;SDS011;46892;45.668;11.756;2023-09-30T00:26:34;16.47;;;10.87;;
55312;SDS011;46892;45.668;11.756;2023-09-30T00:29:00;14.30;;;10.27;;
55312;SDS011;46892;45.668;11.756;2023-09-30T00:31:29;14.10;;;10.00;;
55312;SDS011;46892;45.668;11.756;2023-09-30T00:33:55;12.03;;;9.57;;
55312;SDS011;46892;45.668;11.756;2023-09-30T00:36:21;12.93;;;10.60;;
55312;SDS011;46892;45.668;11.756;2023-09-30T00:38:47;14.33;;;11.00;;
55312;SDS011;46892;45.668;11.756;2023-09-30T00:41:13;12.53;;;10.63;;
55312;SDS011;46892;45.668;11.756;2023-09-30T00:43:39;15.23;;;10.33;;
55312;SDS011;46892;45.668;11.756;2023-09-30T00:48:42;13.33;;;11.20;;
55312;SDS011;46892;45.668;11.756;2023-09-30T00:51:08;13.77;;;10.33;;
55312;SDS011;46892;45.668;11.756;2023-09-30T00:53:34;14.20;;;10.73;;
55312;SDS011;46892;45.668;11.756;2023-09-30T00:56:00;16.87;;;11.60;;
55312;SDS011;46892;45.668;11.756;2023-09-30T00:58:26;14.47;;;12.70;;
55312;SDS011;46892;45.668;11.756;2023-09-30T01:00:53;16.23;;;13.23;;
55312;SDS011;46892;45.668;11.756;2023-09-30T01:03:21;17.00;;;13.23;;
55312;SDS011;46892;45.668;11.756;2023-09-30T01:05:48;17.77;;;13.77;;
55312;SDS011;46892;45.668;11.756;2023-09-30T01:08:15;19.80;;;13.03;;
55312;SDS011;46892;45.668;11.756;2023-09-30T01:10:45;18.75;;;14.32;;
55312;SDS011;46892;45.668;11.756;2023-09-30T01:13:11;15.83;;;13.27;;
55312;SDS011;46892;45.668;11.756;2023-09-30T01:15:36;16.87;;;12.97;;
55312;SDS011;46892;45.668;11.756;2023-09-30T01:18:03;16.43;;;11.70;;
55312;SDS011;46892;45.668;11.756;2023-09-30T01:20:29;14.40;;;11.03;;
55312;SDS011;46892;45.668;11.756;2023-09-30T01:22:56;18.37;;;12.77;;
55312;SDS011;46892;45.668;11.756;2023-09-30T01:25:23;15.03;;;11.70;;
55312;SDS011;46892;45.668;11.756;2023-09-30T01:27:49;12.87;;;11.07;;
55312;SDS011;46892;45.668;11.756;2023-09-30T01:30:19;13.30;;;10.63;;
55312;SDS011;46892;45.668;11.756;2023-09-30T01:32:44;16.03;;;11.37;;
55312;SDS011;46892;45.668;11.756;2023-09-30T01:35:10;14.90;;;11.23;;
55312;SDS011;46892;45.668;11.756;2023-09-30T01:37:36;13.63;;;10.97;;
55312;SDS011;46892;45.668;11.756;2023-09-30T01:40:02;13.77;;;11.07;;
55312;SDS011;46892;45.668;11.756;2023-09-30T01:42:29;13.27;;;11.13;;
55312;SDS011;46892;45.668;11.756;2023-09-30T01:44:54;15.63;;;12.20;;
55312;SDS011;46892;45.668;11.756;2023-09-30T01:47:22;12.73;;;11.20;;
55312;SDS011;46892;45.668;11.756;2023-09-30T01:49:47;12.00;;;10.10;;
55312;SDS011;46892;45.668;11.756;2023-09-30T01:52:13;14.93;;;10.57;;
55312;SDS011;46892;45.668;11.756;2023-09-30T01:54:39;14.80;;;11.17;;
55312;SDS011;46892;45.668;11.756;2023-09-30T01:57:05;15.83;;;11.53;;
55312;SDS011;46892;45.668;11.756;2023-09-30T01:59:31;13.73;;;11.27;;
55312;SDS011;46892;45.668;11.756;2023-09-30T02:01:56;15.07;;;11.80;;
55312;SDS011;46892;45.668;11.756;2023-09-30T02:04:22;15.93;;;11.90;;
55312;SDS011;46892;45.668;11.756;2023-09-30T02:06:48;13.77;;;11.80;;
55312;SDS011;46892;45.668;11.756;2023-09-30T02:09:14;15.80;;;12.57;;
55312;SDS011;46892;45.668;11.756;2023-09-30T02:11:39;14.37;;;12.23;;
55312;SDS011;46892;45.668;11.756;2023-09-30T02:14:09;16.97;;;12.57;;
55312;SDS011;46892;45.668;11.756;2023-09-30T02:16:37;13.73;;;10.93;;
55312;SDS011;46892;45.668;11.756;2023-09-30T02:19:03;14.87;;;12.00;;
55312;SDS011;46892;45.668;11.756;2023-09-30T02:21:29;13.93;;;12.13;;
55312;SDS011;46892;45.668;11.756;2023-09-30T02:23:55;15.20;;;12.27;;
55312;SDS011;46892;45.668;11.756;2023-09-30T02:26:21;17.77;;;12.67;;
55312;SDS011;46892;45.668;11.756;2023-09-30T02:28:50;16.03;;;12.43;;
55312;SDS011;46892;45.668;11.756;2023-09-30T02:31:17;18.47;;;13.50;;
55312;SDS011;46892;45.668;11.756;2023-09-30T02:33:43;14.93;;;12.90;;
55312;SDS011;46892;45.668;11.756;2023-09-30T02:36:09;17.50;;;13.80;;
55312;SDS011;46892;45.668;11.756;2023-09-30T02:38:35;17.67;;;12.10;;
55312;SDS011;46892;45.668;11.756;2023-09-30T02:41:04;14.97;;;11.87;;
55312;SDS011;46892;45.668;11.756;2023-09-30T02:43:30;20.37;;;15.00;;
55312;SDS011;46892;45.668;11.756;2023-09-30T02:45:56;21.03;;;13.10;;
55312;SDS011;46892;45.668;11.756;2023-09-30T02:48:21;17.73;;;13.07;;
55312;SDS011;46892;45.668;11.756;2023-09-30T02:50:47;20.27;;;12.83;;
55312;SDS011;46892;45.668;11.756;2023-09-30T02:53:13;16.33;;;12.03;;
55312;SDS011;46892;45.668;11.756;2023-09-30T02:55:40;15.67;;;12.60;;
55312;SDS011;46892;45.668;11.756;2023-09-30T02:58:06;14.90;;;12.47;;
55312;SDS011;46892;45.668;11.756;2023-09-30T03:00:33;17.57;;;12.57;;
55312;SDS011;46892;45.668;11.756;2023-09-30T03:03:00;17.07;;;12.73;;
55312;SDS011;46892;45.668;11.756;2023-09-30T03:05:27;15.67;;;13.00;;
55312;SDS011;46892;45.668;11.756;2023-09-30T03:07:55;16.03;;;13.43;;
55312;SDS011;46892;45.668;11.756;2023-09-30T03:10:21;16.87;;;12.50;;
55312;SDS011;46892;45.668;11.756;2023-09-30T03:12:51;13.80;;;12.27;;
55312;SDS011;46892;45.668;11.756;2023-09-30T03:15:19;14.47;;;12.37;;
55312;SDS011;46892;45.668;11.756;2023-09-30T03:17:45;18.13;;;13.00;;
55312;SDS011;46892;45.668;11.756;2023-09-30T03:20:11;17.27;;;13.67;;
55312;SDS011;46892;45.668;11.756;2023-09-30T03:22:39;17.23;;;13.07;;
55312;SDS011;46892;45.668;11.756;2023-09-30T03:25:06;14.03;;;12.40;;
55312;SDS011;46892;45.668;11.756;2023-09-30T03:27:33;15.73;;;12.97;;
55312;SDS011;46892;45.668;11.756;2023-09-30T03:29:59;18.20;;;12.93;;
55312;SDS011;46892;45.668;11.756;2023-09-30T03:32:26;17.70;;;13.00;;
55312;SDS011;46892;45.668;11.756;2023-09-30T03:34:52;15.90;;;13.47;;
55312;SDS011;46892;45.668;11.756;2023-09-30T03:37:18;16.53;;;12.33;;
55312;SDS011;46892;45.668;11.756;2023-09-30T03:39:44;16.20;;;12.67;;
55312;SDS011;46892;45.668;11.756;2023-09-30T03:42:14;18.35;;;12.27;;
55312;SDS011;46892;45.668;11.756;2023-09-30T03:44:40;17.17;;;12.53;;
55312;SDS011;46892;45.668;11.756;2023-09-30T03:47:06;16.10;;;11.93;;
55312;SDS011;46892;45.668;11.756;2023-09-30T03:49:33;17.03;;;13.30;;
55312;SDS011;46892;45.668;11.756;2023-09-30T03:51:59;17.70;;;11.83;;
55312;SDS011;46892;45.668;11.756;2023-09-30T03:54:26;17.10;;;12.00;;
55312;SDS011;46892;45.668;11.756;2023-09-30T03:56:52;17.33;;;12.03;;
55312;SDS011;46892;45.668;11.756;2023-09-30T03:59:18;18.40;;;12.40;;
55312;SDS011;46892;45.668;11.756;2023-09-30T04:01:44;14.57;;;11.10;;
55312;SDS011;46892;45.668;11.756;2023-09-30T04:04:12;14.97;;;12.03;;
55312;SDS011;46892;45.668;11.756;2023-09-30T04:06:38;18.27;;;12.33;;
55312;SDS011;46892;45.668;11.756;2023-09-30T04:09:05;15.90;;;11.57;;
55312;SDS011;46892;45.668;11.756;2023-09-30T04:11:36;16.97;;;11.73;;
55312;SDS011;46892;45.668;11.756;2023-09-30T04:14:04;16.00;;;12.27;;
55312;SDS011;46892;45.668;11.756;2023-09-30T04:18:59;15.60;;;11.40;;
55312;SDS011;46892;45.668;11.756;2023-09-30T04:21:25;13.37;;;11.40;;
55312;SDS011;46892;45.668;11.756;2023-09-30T04:23:53;14.27;;;11.30;;
55312;SDS011;46892;45.668;11.756;2023-09-30T04:26:19;15.50;;;11.47;;
55312;SDS011;46892;45.668;11.756;2023-09-30T04:28:45;13.70;;;11.60;;
55312;SDS011;46892;45.668;11.756;2023-09-30T04:31:11;15.20;;;12.27;;
55312;SDS011;46892;45.668;11.756;2023-09-30T04:33:38;14.07;;;11.10;;
55312;SDS011;46892;45.668;11.756;2023-09-30T04:36:05;13.93;;;11.20;;
55312;SDS011;46892;45.668;11.756;2023-09-30T04:38:34;14.23;;;12.00;;
55312;SDS011;46892;45.668;11.756;2023-09-30T04:41:02;14.63;;;11.63;;
55312;SDS011;46892;45.668;11.756;2023-09-30T04:43:28;14.60;;;11.80;;
55312;SDS011;46892;45.668;11.756;2023-09-30T04:45:54;14.33;;;10.70;;
55312;SDS011;46892;45.668;11.756;2023-09-30T04:48:22;13.70;;;10.77;;
55312;SDS011;46892;45.668;11.756;2023-09-30T04:50:48;13.17;;;10.57;;
55312;SDS011;46892;45.668;11.756;2023-09-30T04:53:16;12.60;;;10.27;;
55312;SDS011;46892;45.668;11.756;2023-09-30T04:55:43;12.87;;;10.33;;
55312;SDS011;46892;45.668;11.756;2023-09-30T04:58:09;11.17;;;9.93;;
55312;SDS011;46892;45.668;11.756;2023-09-30T05:00:35;12.73;;;10.63;;
55312;SDS011;46892;45.668;11.756;2023-09-30T05:03:01;15.10;;;11.53;;
55312;SDS011;46892;45.668;11.756;2023-09-30T05:05:27;14.43;;;10.70;;
55312;SDS011;46892;45.668;11.756;2023-09-30T05:07:54;14.40;;;10.23;;
55312;SDS011;46892;45.668;11.756;2023-09-30T05:10:20;12.37;;;10.13;;
55312;SDS011;46892;45.668;11.756;2023-09-30T05:12:46;13.37;;;10.40;;
55312;SDS011;46892;45.668;11.756;2023-09-30T05:15:12;12.07;;;9.67;;
55312;SDS011;46892;45.668;11.756;2023-09-30T05:17:40;14.17;;;10.03;;
55312;SDS011;46892;45.668;11.756;2023-09-30T05:20:09;11.93;;;9.73;;
55312;SDS011;46892;45.668;11.756;2023-09-30T05:22:37;11.90;;;9.83;;
55312;SDS011;46892;45.668;11.756;2023-09-30T05:25:07;14.55;;;9.88;;
55312;SDS011;46892;45.668;11.756;2023-09-30T05:27:34;12.30;;;10.43;;
55312;SDS011;46892;45.668;11.756;2023-09-30T05:29:59;12.37;;;10.27;;
55312;SDS011;46892;45.668;11.756;2023-09-30T05:32:25;15.20;;;10.27;;
55312;SDS011;46892;45.668;11.756;2023-09-30T05:34:52;15.73;;;10.80;;
55312;SDS011;46892;45.668;11.756;2023-09-30T05:37:19;18.30;;;11.00;;
55312;SDS011;46892;45.668;11.756;2023-09-30T05:39:47;14.27;;;10.33;;
55312;SDS011;46892;45.668;11.756;2023-09-30T05:42:14;13.27;;;9.77;;
55312;SDS011;46892;45.668;11.756;2023-09-30T05:44:41;14.70;;;10.63;;
55312;SDS011;46892;45.668;11.756;2023-09-30T05:47:08;15.50;;;11.00;;
55312;SDS011;46892;45.668;11.756;2023-09-30T05:49:34;16.20;;;11.17;;
55312;SDS011;46892;45.668;11.756;2023-09-30T05:52:01;14.93;;;10.70;;
55312;SDS011;46892;45.668;11.756;2023-09-30T05:54:28;16.57;;;11.27;;
55312;SDS011;46892;45.668;11.756;2023-09-30T05:56:54;16.47;;;10.70;;
55312;SDS011;46892;45.668;11.756;2023-09-30T05:59:20;11.67;;;9.77;;
55312;SDS011;46892;45.668;11.756;2023-09-30T06:01:46;12.27;;;9.57;;
55312;SDS011;46892;45.668;11.756;2023-09-30T06:04:11;12.27;;;9.43;;
55312;SDS011;46892;45.668;11.756;2023-09-30T06:06:37;13.23;;;9.73;;
55312;SDS011;46892;45.668;11.756;2023-09-30T06:09:03;17.20;;;10.30;;
55312;SDS011;46892;45.668;11.756;2023-09-30T06:11:33;17.25;;;9.50;;
55312;SDS011;46892;45.668;11.756;2023-09-30T06:13:59;14.43;;;9.60;;
55312;SDS011;46892;45.668;11.756;2023-09-30T06:16:26;15.40;;;9.87;;
55312;SDS011;46892;45.668;11.756;2023-09-30T06:18:52;15.80;;;9.10;;
55312;SDS011;46892;45.668;11.756;2023-09-30T06:21:19;12.33;;;7.97;;
55312;SDS011;46892;45.668;11.756;2023-09-30T06:23:48;11.17;;;7.33;;
55312;SDS011;46892;45.668;11.756;2023-09-30T06:26:17;10.90;;;7.73;;
55312;SDS011;46892;45.668;11.756;2023-09-30T06:28:43;14.20;;;8.13;;
55312;SDS011;46892;45.668;11.756;2023-09-30T06:31:10;9.70;;;7.73;;
55312;SDS011;46892;45.668;11.756;2023-09-30T06:33:36;12.97;;;8.07;;
55312;SDS011;46892;45.668;11.756;2023-09-30T06:36:12;9.83;;;8.33;;
55312;SDS011;46892;45.668;11.756;2023-09-30T06:38:42;12.17;;;9.13;;
55312;SDS011;46892;45.668;11.756;2023-09-30T06:41:14;12.80;;;8.13;;
55312;SDS011;46892;45.668;11.756;2023-09-30T06:43:44;10.07;;;7.53;;
55312;SDS011;46892;45.668;11.756;2023-09-30T06:46:09;9.63;;;7.50;;
55312;SDS011;46892;45.668;11.756;2023-09-30T06:48:36;18.93;;;9.17;;
55312;SDS011;46892;45.668;11.756;2023-09-30T06:51:02;15.17;;;7.90;;
55312;SDS011;46892;45.668;11.756;2023-09-30T06:53:28;11.13;;;6.77;;
55312;SDS011;46892;45.668;11.756;2023-09-30T06:55:55;13.53;;;7.60;;
55312;SDS011;46892;45.668;11.756;2023-09-30T06:58:21;13.67;;;7.07;;
55312;SDS011;46892;45.668;11.756;2023-09-30T07:00:47;12.47;;;7.07;;
55312;SDS011;46892;45.668;11.756;2023-09-30T07:03:15;10.67;;;6.37;;
55312;SDS011;46892;45.668;11.756;2023-09-30T07:05:42;11.10;;;6.73;;
55312;SDS011;46892;45.668;11.756;2023-09-30T07:08:09;12.13;;;6.70;;
55312;SDS011;46892;45.668;11.756;2023-09-30T07:10:38;14.27;;;7.23;;
55312;SDS011;46892;45.668;11.756;2023-09-30T07:13:04;8.33;;;6.47;;
55312;SDS011;46892;45.668;11.756;2023-09-30T07:15:31;8.90;;;5.60;;
55312;SDS011;46892;45.668;11.756;2023-09-30T07:17:57;11.37;;;6.37;;
55312;SDS011;46892;45.668;11.756;2023-09-30T07:20:23;11.07;;;6.13;;
55312;SDS011;46892;45.668;11.756;2023-09-30T07:22:49;9.77;;;6.13;;
55312;SDS011;46892;45.668;11.756;2023-09-30T07:25:15;8.50;;;5.50;;
55312;SDS011;46892;45.668;11.756;2023-09-30T07:27:45;9.83;;;5.80;;
55312;SDS011;46892;45.668;11.756;2023-09-30T07:30:12;10.75;;;5.57;;
55312;SDS011;46892;45.668;11.756;2023-09-30T07:32:41;11.67;;;5.40;;
55312;SDS011;46892;45.668;11.756;2023-09-30T07:35:07;13.83;;;5.33;;
55312;SDS011;46892;45.668;11.756;2023-09-30T07:37:34;10.73;;;5.07;;
55312;SDS011;46892;45.668;11.756;2023-09-30T07:39:59;8.67;;;5.13;;
55312;SDS011;46892;45.668;11.756;2023-09-30T07:42:25;8.77;;;5.27;;
55312;SDS011;46892;45.668;11.756;2023-09-30T07:44:51;6.77;;;4.90;;
55312;SDS011;46892;45.668;11.756;2023-09-30T07:47:17;9.20;;;5.90;;
55312;SDS011;46892;45.668;11.756;2023-09-30T07:49:43;8.47;;;5.33;;
55312;SDS011;46892;45.668;11.756;2023-09-30T07:52:09;7.27;;;4.80;;
55312;SDS011;46892;45.668;11.756;2023-09-30T07:54:36;8.13;;;4.90;;
55312;SDS011;46892;45.668;11.756;2023-09-30T07:57:01;8.93;;;5.10;;
55312;SDS011;46892;45.668;11.756;2023-09-30T07:59:27;8.13;;;5.33;;
55312;SDS011;46892;45.668;11.756;2023-09-30T08:01:53;6.23;;;4.67;;
55312;SDS011;46892;45.668;11.756;2023-09-30T08:04:19;8.53;;;5.10;;
55312;SDS011;46892;45.668;11.756;2023-09-30T08:06:45;7.50;;;5.17;;
55312;SDS011;46892;45.668;11.756;2023-09-30T08:09:14;7.90;;;4.60;;
55312;SDS011;46892;45.668;11.756;2023-09-30T08:11:40;9.10;;;4.68;;
55312;SDS011;46892;45.668;11.756;2023-09-30T08:14:06;6.97;;;4.60;;
55312;SDS011;46892;45.668;11.756;2023-09-30T08:16:34;6.25;;;4.65;;
55312;SDS011;46892;45.668;11.756;2023-09-30T08:19:00;7.13;;;4.67;;
55312;SDS011;46892;45.668;11.756;2023-09-30T08:21:26;12.27;;;5.33;;
55312;SDS011;46892;45.668;11.756;2023-09-30T08:23:52;5.90;;;4.63;;
55312;SDS011;46892;45.668;11.756;2023-09-30T08:26:19;11.23;;;4.93;;
55312;SDS011;46892;45.668;11.756;2023-09-30T08:28:44;8.33;;;5.20;;
55312;SDS011;46892;45.668;11.756;2023-09-30T08:31:10;10.87;;;5.10;;
55312;SDS011;46892;45.668;11.756;2023-09-30T08:33:36;5.45;;;4.38;;
55312;SDS011;46892;45.668;11.756;2023-09-30T08:36:02;8.97;;;5.20;;
55312;SDS011;46892;45.668;11.756;2023-09-30T08:38:36;6.88;;;4.68;;
55312;SDS011;46892;45.668;11.756;2023-09-30T08:41:03;7.03;;;4.80;;
55312;SDS011;46892;45.668;11.756;2023-09-30T08:43:29;9.68;;;5.13;;
55312;SDS011;46892;45.668;11.756;2023-09-30T08:45:57;6.93;;;4.40;;
55312;SDS011;46892;45.668;11.756;2023-09-30T08:48:25;10.02;;;5.03;;
55312;SDS011;46892;45.668;11.756;2023-09-30T08:50:55;7.93;;;5.10;;
55312;SDS011;46892;45.668;11.756;2023-09-30T08:53:22;8.23;;;4.80;;
55312;SDS011;46892;45.668;11.756;2023-09-30T08:55:49;7.50;;;5.17;;
55312;SDS011;46892;45.668;11.756;2023-09-30T08:58:19;8.67;;;5.23;;
55312;SDS011;46892;45.668;11.756;2023-09-30T09:00:48;9.68;;;5.30;;
55312;SDS011;46892;45.668;11.756;2023-09-30T09:03:15;10.73;;;5.20;;
55312;SDS011;46892;45.668;11.756;2023-09-30T09:05:43;8.55;;;5.28;;
55312;SDS011;46892;45.668;11.756;2023-09-30T09:08:09;9.23;;;5.32;;
55312;SDS011;46892;45.668;11.756;2023-09-30T09:10:35;8.77;;;5.32;;
55312;SDS011;46892;45.668;11.756;2023-09-30T09:13:00;7.00;;;5.00;;
55312;SDS011;46892;45.668;11.756;2023-09-30T09:15:27;7.43;;;4.72;;
55312;SDS011;46892;45.668;11.756;2023-09-30T09:17:56;9.25;;;5.15;;
55312;SDS011;46892;45.668;11.756;2023-09-30T09:20:23;8.48;;;5.28;;
55312;SDS011;46892;45.668;11.756;2023-09-30T09:22:51;7.18;;;5.03;;
55312;SDS011;46892;45.668;11.756;2023-09-30T09:25:23;9.83;;;5.40;;
55312;SDS011;46892;45.668;11.756;2023-09-30T09:27:50;7.97;;;5.28;;
55312;SDS011;46892;45.668;11.756;2023-09-30T09:30:20;9.07;;;5.30;;
55312;SDS011;46892;45.668;11.756;2023-09-30T09:35:19;11.40;;;5.70;;
55312;SDS011;46892;45.668;11.756;2023-09-30T09:37:53;12.18;;;6.40;;
55312;SDS011;46892;45.668;11.756;2023-09-30T09:40:38;8.98;;;5.22;;
55312;SDS011;46892;45.668;11.756;2023-09-30T09:43:05;11.15;;;5.97;;
55312;SDS011;46892;45.668;11.756;2023-09-30T09:45:35;8.55;;;4.85;;
55312;SDS011;46892;45.668;11.756;2023-09-30T09:48:03;8.68;;;5.30;;
55312;SDS011;46892;45.668;11.756;2023-09-30T09:50:32;8.25;;;5.72;;
55312;SDS011;46892;45.668;11.756;2023-09-30T09:52:58;9.63;;;5.72;;
55312;SDS011;46892;45.668;11.756;2023-09-30T09:55:25;12.45;;;6.30;;
55312;SDS011;46892;45.668;11.756;2023-09-30T09:57:52;13.40;;;6.15;;
55312;SDS011;46892;45.668;11.756;2023-09-30T10:00:22;11.32;;;6.07;;
55312;SDS011;46892;45.668;11.756;2023-09-30T10:02:50;10.80;;;6.72;;
55312;SDS011;46892;45.668;11.756;2023-09-30T10:05:17;11.73;;;6.10;;
55312;SDS011;46892;45.668;11.756;2023-09-30T10:10:15;10.55;;;6.22;;
55312;SDS011;46892;45.668;11.756;2023-09-30T10:12:43;13.07;;;5.93;;
55312;SDS011;46892;45.668;11.756;2023-09-30T10:18:03;12.35;;;6.15;;
55312;SDS011;46892;45.668;11.756;2023-09-30T10:20:35;10.73;;;6.50;;
55312;SDS011;46892;45.668;11.756;2023-09-30T10:25:54;12.27;;;6.28;;
55312;SDS011;46892;45.668;11.756;2023-09-30T10:28:46;8.68;;;6.03;;
55312;SDS011;46892;45.668;11.756;2023-09-30T10:31:16;10.85;;;6.47;;
55312;SDS011;46892;45.668;11.756;2023-09-30T10:36:28;9.35;;;6.22;;
55312;SDS011;46892;45.668;11.756;2023-09-30T10:38:55;9.55;;;6.30;;
55312;SDS011;46892;45.668;11.756;2023-09-30T10:46:50;10.45;;;5.80;;
55312;SDS011;46892;45.668;11.756;2023-09-30T10:49:29;9.45;;;6.18;;
55312;SDS011;46892;45.668;11.756;2023-09-30T10:51:59;12.48;;;5.95;;
55312;SDS011;46892;45.668;11.756;2023-09-30T10:54:29;8.85;;;5.88;;
55312;SDS011;46892;45.668;11.756;2023-09-30T10:56:56;7.93;;;5.28;;
55312;SDS011;46892;45.668;11.756;2023-09-30T10:59:29;7.97;;;5.22;;
55312;SDS011;46892;45.668;11.756;2023-09-30T11:02:00;11.52;;;5.82;;
55312;SDS011;46892;45.668;11.756;2023-09-30T11:04:26;8.82;;;5.07;;
55312;SDS011;46892;45.668;11.756;2023-09-30T11:06:54;7.68;;;5.10;;
55312;SDS011;46892;45.668;11.756;2023-09-30T11:09:21;10.52;;;5.50;;
55312;SDS011;46892;45.668;11.756;2023-09-30T11:11:48;9.38;;;6.05;;
55312;SDS011;46892;45.668;11.756;2023-09-30T11:16:57;10.32;;;6.18;;
55312;SDS011;46892;45.668;11.756;2023-09-30T11:19:24;13.45;;;6.45;;
55312;SDS011;46892;45.668;11.756;2023-09-30T11:21:52;9.57;;;5.63;;
55312;SDS011;46892;45.668;11.756;2023-09-30T11:24:19;11.27;;;5.40;;
55312;SDS011;46892;45.668;11.756;2023-09-30T11:26:46;7.88;;;5.35;;
55312;SDS011;46892;45.668;11.756;2023-09-30T11:29:13;7.47;;;5.15;;
55312;SDS011;46892;45.668;11.756;2023-09-30T11:31:41;12.68;;;5.75;;
55312;SDS011;46892;45.668;11.756;2023-09-30T11:34:14;7.75;;;5.72;;
55312;SDS011;46892;45.668;11.756;2023-09-30T11:36:47;9.10;;;6.30;;
55312;SDS011;46892;45.668;11.756;2023-09-30T11:39:25;7.70;;;5.35;;
55312;SDS011;46892;45.668;11.756;2023-09-30T11:41:51;10.38;;;5.10;;
55312;SDS011;46892;45.668;11.756;2023-09-30T11:44:17;7.88;;;4.75;;
55312;SDS011;46892;45.668;11.756;2023-09-30T11:46:47;10.10;;;5.80;;
55312;SDS011;46892;45.668;11.756;2023-09-30T11:49:30;10.27;;;6.03;;
55312;SDS011;46892;45.668;11.756;2023-09-30T11:52:02;10.88;;;6.85;;
55312;SDS011;46892;45.668;11.756;2023-09-30T11:54:29;15.65;;;7.13;;
55312;SDS011;46892;45.668;11.756;2023-09-30T11:56:58;11.43;;;6.63;;
55312;SDS011;46892;45.668;11.756;2023-09-30T11:59:27;12.38;;;7.22;;
55312;SDS011;46892;45.668;11.756;2023-09-30T12:01:53;15.68;;;7.40;;
55312;SDS011;46892;45.668;11.756;2023-09-30T12:04:19;11.65;;;6.82;;
55312;SDS011;46892;45.668;11.756;2023-09-30T12:06:46;8.55;;;5.50;;
55312;SDS011;46892;45.668;11.756;2023-09-30T12:09:14;11.93;;;6.35;;
55312;SDS011;46892;45.668;11.756;2023-09-30T12:11:41;9.63;;;6.05;;
55312;SDS011;46892;45.668;11.756;2023-09-30T12:14:09;10.32;;;5.97;;
55312;SDS011;46892;45.668;11.756;2023-09-30T12:16:36;9.90;;;5.80;;
55312;SDS011;46892;45.668;11.756;2023-09-30T12:19:02;10.48;;;5.82;;
55312;SDS011;46892;45.668;11.756;2023-09-30T12:21:28;8.25;;;5.30;;
55312;SDS011;46892;45.668;11.756;2023-09-30T12:23:54;11.18;;;5.20;;
55312;SDS011;46892;45.668;11.756;2023-09-30T12:26:20;9.23;;;5.60;;
55312;SDS011;46892;45.668;11.756;2023-09-30T12:28:46;7.63;;;5.28;;
55312;SDS011;46892;45.668;11.756;2023-09-30T12:31:13;11.65;;;5.93;;
55312;SDS011;46892;45.668;11.756;2023-09-30T12:33:40;10.57;;;5.38;;
55312;SDS011;46892;45.668;11.756;2023-09-30T12:36:06;9.35;;;5.68;;
55312;SDS011;46892;45.668;11.756;2023-09-30T12:38:32;9.52;;;5.53;;
55312;SDS011;46892;45.668;11.756;2023-09-30T12:40:58;7.97;;;5.18;;
55312;SDS011;46892;45.668;11.756;2023-09-30T12:43:25;11.10;;;4.68;;
55312;SDS011;46892;45.668;11.756;2023-09-30T12:45:51;13.45;;;6.55;;
55312;SDS011;46892;45.668;11.756;2023-09-30T12:48:17;9.57;;;6.03;;
55312;SDS011;46892;45.668;11.756;2023-09-30T12:50:43;10.88;;;5.85;;
55312;SDS011;46892;45.668;11.756;2023-09-30T12:53:10;10.68;;;5.43;;
55312;SDS011;46892;45.668;11.756;2023-09-30T12:55:36;16.20;;;6.85;;
55312;SDS011;46892;45.668;11.756;2023-09-30T12:58:02;16.10;;;6.40;;
55312;SDS011;46892;45.668;11.756;2023-09-30T13:00:27;9.02;;;5.50;;
55312;SDS011;46892;45.668;11.756;2023-09-30T13:02:58;13.85;;;5.60;;
55312;SDS011;46892;45.668;11.756;2023-09-30T13:05:28;7.15;;;4.40;;
55312;SDS011;46892;45.668;11.756;2023-09-30T13:07:55;17.33;;;6.10;;
55312;SDS011;46892;45.668;11.756;2023-09-30T13:10:21;53.78;;;18.88;;
55312;SDS011;46892;45.668;11.756;2023-09-30T13:12:47;31.75;;;9.82;;
55312;SDS011;46892;45.668;11.756;2023-09-30T13:15:17;17.58;;;7.40;;
55312;SDS011;46892;45.668;11.756;2023-09-30T13:17:43;18.38;;;6.82;;
55312;SDS011;46892;45.668;11.756;2023-09-30T13:20:09;21.13;;;6.85;;
55312;SDS011;46892;45.668;11.756;2023-09-30T13:22:37;10.40;;;5.07;;
55312;SDS011;46892;45.668;11.756;2023-09-30T13:25:06;8.02;;;4.68;;
55312;SDS011;46892;45.668;11.756;2023-09-30T13:27:39;7.38;;;4.30;;
55312;SDS011;46892;45.668;11.756;2023-09-30T13:30:08;7.53;;;3.70;;
55312;SDS011;46892;45.668;11.756;2023-09-30T13:32:35;30.30;;;7.20;;
55312;SDS011;46892;45.668;11.756;2023-09-30T13:35:02;23.80;;;6.50;;
55312;SDS011;46892;45.668;11.756;2023-09-30T13:37:31;6.22;;;4.18;;
55312;SDS011;46892;45.668;11.756;2023-09-30T13:40:01;8.48;;;4.47;;
55312;SDS011;46892;45.668;11.756;2023-09-30T13:42:29;7.30;;;4.40;;
55312;SDS011;46892;45.668;11.756;2023-09-30T13:44:55;7.47;;;5.38;;
55312;SDS011;46892;45.668;11.756;2023-09-30T13:47:24;7.63;;;4.55;;
55312;SDS011;46892;45.668;11.756;2023-09-30T13:49:51;8.45;;;4.35;;
55312;SDS011;46892;45.668;11.756;2023-09-30T13:52:17;9.40;;;4.68;;
55312;SDS011;46892;45.668;11.756;2023-09-30T13:54:43;10.55;;;4.90;;
55312;SDS011;46892;45.668;11.756;2023-09-30T13:57:09;8.30;;;4.47;;
55312;SDS011;46892;45.668;11.756;2023-09-30T13:59:35;6.30;;;4.40;;
55312;SDS011;46892;45.668;11.756;2023-09-30T14:02:02;8.02;;;4.35;;
55312;SDS011;46892;45.668;11.756;2023-09-30T14:04:31;5.57;;;3.83;;
55312;SDS011;46892;45.668;11.756;2023-09-30T14:07:02;9.07;;;4.60;;
55312;SDS011;46892;45.668;11.756;2023-09-30T14:09:34;6.13;;;3.47;;
55312;SDS011;46892;45.668;11.756;2023-09-30T14:12:07;8.52;;;3.80;;
55312;SDS011;46892;45.668;11.756;2023-09-30T14:14:36;7.47;;;3.97;;
55312;SDS011;46892;45.668;11.756;2023-09-30T14:17:09;5.97;;;4.13;;
55312;SDS011;46892;45.668;11.756;2023-09-30T14:19:42;7.57;;;3.95;;
55312;SDS011;46892;45.668;11.756;2023-09-30T14:22:13;6.22;;;4.35;;
55312;SDS011;46892;45.668;11.756;2023-09-30T14:24:42;20.73;;;4.60;;
55312;SDS011;46892;45.668;11.756;2023-09-30T14:27:19;7.88;;;4.22;;
55312;SDS011;46892;45.668;11.756;2023-09-30T14:29:53;9.23;;;4.10;;
55312;SDS011;46892;45.668;11.756;2023-09-30T14:32:24;7.18;;;4.05;;
55312;SDS011;46892;45.668;11.756;2023-09-30T14:34:53;6.57;;;4.07;;
55312;SDS011;46892;45.668;11.756;2023-09-30T14:37:19;7.03;;;4.60;;
55312;SDS011;46892;45.668;11.756;2023-09-30T14:39:45;9.48;;;4.00;;
55312;SDS011;46892;45.668;11.756;2023-09-30T14:42:11;8.77;;;4.60;;
55312;SDS011;46892;45.668;11.756;2023-09-30T14:44:37;7.50;;;4.22;;
55312;SDS011;46892;45.668;11.756;2023-09-30T14:47:03;10.23;;;4.70;;
55312;SDS011;46892;45.668;11.756;2023-09-30T14:49:30;7.05;;;4.05;;